Latest Weather Observations for Warragul (Nilma North)

IDV60801

Issued at 2:42 pm EDT Sunday 17 February 2019 (issued every 10 minutes, with the page automatically refreshed every 10 minutes)

About weather observations | Map of weather stations | Latest weather observations for VIC | Other Formats
Station Details ID: 085313 Name: NILMA NORTH (WARRAGUL) Lat: -38.13 Lon: 145.99 Height: 134.11 m
Data from the previous 72 hours. | See also: Recent months for locations in Victoria
Date/Time
EDT
Temp
°C
App
Temp
°C
Dew
Point
°C
Rel
Hum
%
Delta-T
°C
Wind Press
QNH
hPa
Press
MSL
hPa
Rain since
9am
mm
Dir  Spd
km/h
Gust
km/h
Spd
kts
Gust
kts
17/02:30pm 27.4 24.5 8.3 30 10.4 WSW 13 20 7 11 1011.5 1011.1 0.0
17/02:00pm 27.5 25.5 10.2 34 9.8 W 11 20 6 11 1011.6 1011.2 0.0
17/01:30pm 27.9 25.1 10.1 33 10.0 W 15 22 8 12 1011.7 1011.3 0.0
17/01:00pm 26.7 26.2 12.7 42 8.2 WSW 7 17 4 9 1011.9 1011.5 0.0
17/12:30pm 25.8 25.6 13.0 45 7.5 SW 6 11 3 6 1012.1 1011.7 0.0
17/12:00pm 24.7 24.7 13.6 50 6.5 S 6 9 3 5 1012.5 1012.1 0.0
17/11:30am 22.7 23.1 14.8 61 4.7 ENE 6 7 3 4 1012.6 1012.2 0.0
17/11:00am 20.9 21.6 15.7 72 3.1 ESE 6 9 3 5 1012.7 1012.3 0.0
17/10:30am 19.5 20.2 15.6 78 2.3 SE 6 9 3 5 1012.9 1012.5 0.0
17/10:00am 18.1 18.8 15.7 86 1.4 E 6 9 3 5 1012.9 1012.5 0.0
17/09:30am 15.9 17.1 15.9 100 0.0 SE 4 9 2 5 1013.0 1012.6 0.0
17/09:00am 14.6 15.3 14.6 100 0.0 ESE 4 6 2 3 1013.1 1012.7 0.0
17/08:30am 13.5 14.6 13.5 100 0.0 CALM 0 0 0 0 1013.3 1012.9 0.0
17/08:00am 12.5 13.3 12.5 100 0.0 CALM 0 0 0 0 1013.3 1012.9 0.0
17/07:30am 12.2 12.9 12.2 100 0.0 CALM 0 0 0 0 1013.2 1012.8 0.0
17/07:00am 12.3 13.0 12.3 100 0.0 CALM 0 0 0 0 1012.9 1012.5 0.0
17/06:30am 12.1 12.8 12.1 100 0.0 CALM 0 0 0 0 1012.6 1012.2 0.0
17/06:00am 11.7 11.9 11.7 100 0.0 NE 2 4 1 2 1012.5 1012.1 0.0
17/05:30am 11.6 12.1 11.6 100 0.0 CALM 0 0 0 0 1012.7 1012.3 0.0
17/05:00am 11.9 12.5 11.9 100 0.0 CALM 0 0 0 0 1012.6 1012.2 0.0
17/04:30am 12.3 13.0 12.3 100 0.0 CALM 0 0 0 0 1012.9 1012.5 0.0
17/04:00am 13.1 14.1 13.1 100 0.0 CALM 0 0 0 0 1013.3 1012.9 0.0
17/03:30am 13.1 14.0 12.8 98 0.2 CALM 0 0 0 0 1013.8 1013.3 0.0
17/03:00am 13.7 14.8 13.4 98 0.2 CALM 0 0 0 0 1014.1 1013.6 0.0
17/02:30am 14.2 15.4 13.7 97 0.3 CALM 0 2 0 1 1014.4 1013.9 0.0
17/02:00am 14.6 14.8 14.1 97 0.3 NNW 6 6 3 3 1014.8 1014.4 0.0
17/01:30am 14.7 16.0 14.1 96 0.3 CALM 0 2 0 1 1015.2 1014.8 0.0
17/01:00am 14.7 15.2 13.9 95 0.5 WNW 4 4 2 2 1015.8 1015.4 0.0
17/12:30am 15.3 15.9 14.3 94 0.6 NNW 4 6 2 3 1015.9 1015.5 0.0
17/12:00am 15.5 16.2 14.4 93 0.6 NW 4 4 2 2 1016.3 1015.9 0.0
 
Date/Time
EDT
Temp
°C
App
Temp
°C
Dew
Point
°C
Rel
Hum
%
Delta-T
°C
Wind Press
QNH
hPa
Press
MSL
hPa
Rain since
9am
mm
Dir  Spd
km/h
Gust
km/h
Spd
kts
Gust
kts
16/11:30pm 16.1 17.5 14.5 90 0.9 CALM 0 2 0 1 1016.3 1015.9 0.0
16/11:00pm 16.6 17.7 14.6 88 1.2 SW 2 2 1 1 1016.7 1016.3 0.0
16/10:30pm 17.4 18.2 14.7 84 1.6 SW 4 9 2 5 1016.9 1016.5 0.0
16/10:00pm 17.8 18.9 14.7 82 1.8 SW 2 4 1 2 1016.9 1016.5 0.0
16/09:30pm 18.4 18.9 14.9 80 2.0 SW 6 9 3 5 1017.0 1016.6 0.0
16/09:00pm 19.1 19.8 14.6 75 2.6 WSW 4 6 2 3 1016.5 1016.1 0.0
16/08:30pm 19.8 20.5 14.4 71 3.2 WSW 4 6 2 3 1016.1 1015.7 0.0
16/08:00pm 20.6 21.2 14.3 67 3.7 WSW 4 7 2 4 1015.7 1015.3 0.0
16/07:30pm 21.4 21.4 14.3 64 4.2 WSW 7 13 4 7 1015.5 1015.1 0.0
16/07:00pm 22.4 21.8 14.5 61 4.7 SW 11 17 6 9 1015.3 1014.9 0.0
16/06:30pm 23.8 23.0 15.0 57 5.3 WSW 13 24 7 13 1015.0 1014.6 0.0
16/06:00pm 25.2 24.7 14.9 52 6.2 SW 11 24 6 13 1014.6 1014.2 0.0
16/05:30pm 27.0 25.7 13.7 44 7.9 WSW 13 26 7 14 1014.6 1014.2 0.0
16/05:00pm 27.8 25.1 13.0 40 8.7 W 19 32 10 17 1014.3 1013.8 0.0
16/04:30pm 27.6 25.1 13.5 41 8.4 WSW 19 30 10 16 1014.3 1013.8 0.0
16/04:00pm 28.0 26.4 13.9 42 8.5 WSW 15 26 8 14 1014.4 1013.9 0.0
16/03:30pm 27.8 27.4 15.1 46 7.8 WSW 11 22 6 12 1014.8 1014.4 0.0
16/03:00pm 28.0 27.2 15.0 45 7.9 WSW 13 24 7 13 1015.3 1014.9 0.0
16/02:30pm 26.9 25.7 15.0 48 7.2 WSW 15 24 8 13 1015.8 1015.4 0.0
16/02:00pm 28.5 27.5 14.7 43 8.4 W 13 24 7 13 1015.9 1015.5 0.0
16/01:30pm 26.7 25.4 14.8 48 7.2 W 15 28 8 15 1016.3 1015.9 0.0
16/01:00pm 24.8 24.1 14.3 52 6.2 W 11 20 6 11 1016.7 1016.3 0.0
16/12:30pm 23.4 23.4 15.2 60 4.9 W 9 15 5 8 1017.4 1017.0 0.0
16/12:00pm 22.0 21.9 14.9 64 4.2 W 9 17 5 9 1018.0 1017.6 0.0
16/11:30am 20.5 20.0 14.8 70 3.4 WSW 11 19 6 10 1018.5 1018.1 0.0
16/11:00am 19.3 18.6 14.3 73 2.9 WSW 11 17 6 9 1018.8 1018.4 0.0
16/10:30am 19.1 18.8 14.4 74 2.7 W 9 15 5 8 1018.9 1018.5 0.0
16/10:00am 18.3 17.9 14.0 76 2.5 W 9 13 5 7 1018.9 1018.5 0.0
16/09:30am 17.8 18.4 14.3 80 2.0 SW 4 7 2 4 1018.9 1018.5 0.0
16/09:00am 16.4 16.6 14.1 86 1.3 W 6 9 3 5 1019.0 1018.6 0.0
16/08:30am 15.2 16.1 13.9 92 0.7 NW 2 4 1 2 1019.0 1018.6 0.0
16/08:00am 14.3 14.7 13.8 97 0.3 NNE 4 7 2 4 1019.0 1018.6 0.0
16/07:30am 13.5 14.6 13.5 100 0.0 CALM 0 0 0 0 1018.8 1018.4 0.0
16/07:00am 12.8 13.7 12.8 100 0.0 CALM 0 0 0 0 1018.7 1018.3 0.0
16/06:30am 12.6 13.3 12.3 98 0.2 CALM 0 0 0 0 1018.7 1018.3 0.0
16/06:00am 13.4 14.4 13.1 98 0.2 CALM 0 0 0 0 1018.8 1018.4 0.0
16/05:30am 13.4 14.3 12.8 96 0.3 CALM 0 0 0 0 1018.9 1018.5 0.0
16/05:00am 14.1 15.2 13.5 96 0.3 CALM 0 0 0 0 1019.0 1018.6 0.0
16/04:30am 14.3 15.3 13.3 94 0.6 CALM 0 4 0 2 1019.0 1018.6 0.0
16/04:00am 14.8 14.6 13.7 93 0.6 E 7 13 4 7 1019.1 1018.7 0.0
16/03:30am 14.8 14.6 13.7 93 0.6 E 7 13 4 7 1019.2 1018.8 0.0
16/03:00am 15.3 14.8 13.8 91 0.8 E 9 15 5 8 1019.2 1018.8 0.0
16/02:30am 15.2 13.9 13.7 91 0.8 E 13 20 7 11 1019.3 1018.9 0.0
16/02:00am 15.2 13.5 13.6 90 0.9 E 15 22 8 12 1019.6 1019.2 0.0
16/01:30am 15.1 13.7 13.5 90 0.9 E 13 20 7 11 1020.0 1019.6 0.0
16/01:00am 15.3 13.5 13.3 88 1.1 E 15 24 8 13 1020.2 1019.8 0.0
16/12:30am 15.5 13.7 13.3 87 1.2 E 15 32 8 17 1020.4 1020.0 0.0
16/12:00am 15.7 13.5 13.4 86 1.3 E 17 30 9 16 1020.5 1020.1 0.0
 
Date/Time
EDT
Temp
°C
App
Temp
°C
Dew
Point
°C
Rel
Hum
%
Delta-T
°C
Wind Press
QNH
hPa
Press
MSL
hPa
Rain since
9am
mm
Dir  Spd
km/h
Gust
km/h
Spd
kts
Gust
kts
15/11:30pm 15.9 13.7 13.4 85 1.4 E 17 28 9 15 1021.0 1020.7 0.0
15/11:00pm 16.1 13.9 13.2 83 1.6 E 17 26 9 14 1021.4 1021.0 0.0
15/10:30pm 16.5 13.9 13.2 81 1.9 E 19 30 10 16 1021.8 1021.4 0.0
15/10:00pm 16.9 14.2 13.0 78 2.2 E 19 28 10 15 1022.1 1021.7 0.0
15/09:30pm 17.4 14.5 12.9 75 2.5 E 20 32 11 17 1021.9 1021.5 0.0
15/09:00pm 18.1 15.2 12.8 71 3.0 ESE 20 32 11 17 1021.6 1021.2 0.0
15/08:30pm 18.9 15.6 12.9 68 3.4 ESE 22 33 12 18 1021.2 1020.9 0.0
15/08:00pm 20.3 17.4 13.0 63 4.2 ESE 20 32 11 17 1020.7 1020.3 0.0
15/07:30pm 22.2 19.0 13.0 56 5.3 ESE 22 35 12 19 1020.4 1020.0 0.0
15/07:00pm 23.4 22.7 14.4 57 5.3 SE 11 20 6 11 1020.2 1019.8 0.0
15/06:30pm 23.3 22.2 14.3 57 5.3 SSE 13 20 7 11 1020.1 1019.7 0.0
15/06:00pm 24.5 23.4 14.3 53 6.1 S 13 19 7 10 1020.0 1019.6 0.0
15/05:30pm 26.0 25.2 14.1 47 7.1 SSE 11 20 6 11 1020.0 1019.6 0.0
15/05:00pm 26.7 26.1 12.4 41 8.3 ESE 7 15 4 8 1020.1 1019.7 0.0
15/04:30pm 27.1 26.3 11.6 38 8.9 SE 7 17 4 9 1020.4 1020.0 0.0
15/04:00pm 26.4 25.5 11.3 39 8.6 ESE 7 13 4 7 1020.8 1020.4 0.0
15/03:30pm 26.4 25.9 12.5 42 8.1 S 7 13 4 7 1021.1 1020.8 0.0
15/03:00pm 26.1 25.5 11.8 41 8.2 ENE 6 11 3 6 1021.6 1021.2 0.0
15/02:30pm 24.5 23.7 11.1 43 7.6 SE 6 13 3 7 1021.9 1021.5 0.0
15/02:00pm 23.6 22.7 11.3 46 6.9 E 7 13 4 7 1022.4 1022.0 0.0
15/01:30pm 23.1 22.5 11.8 49 6.4 SE 6 9 3 5 1022.8 1022.4 0.0
15/01:00pm 22.5 22.0 12.2 52 5.8 SE 6 11 3 6 1023.1 1022.7 0.0
15/12:30pm 21.4 20.9 12.0 55 5.3 ESE 6 9 3 5 1023.4 1023.0 0.0
15/12:00pm 20.8 20.3 12.0 57 4.9 ESE 6 11 3 6 1023.7 1023.3 0.0
15/11:30am 20.0 20.0 12.3 61 4.3 SW 4 7 2 4 1024.0 1023.6 0.0
15/11:00am 19.4 19.4 12.4 64 3.9 ENE 4 7 2 4 1024.3 1023.9 0.0
15/10:30am 18.5 18.7 13.1 71 3.1 SSE 4 7 2 4 1024.6 1024.2 0.0
15/10:00am 17.4 17.0 12.3 72 2.8 SE 6 15 3 8 1024.6 1024.2 0.0
15/09:30am 17.2 16.8 12.5 74 2.6 ESE 6 9 3 5 1024.5 1024.1 0.0
15/09:00am 16.3 15.9 12.5 78 2.1 E 6 7 3 4 1024.6 1024.2 0.0
15/08:30am 15.2 15.9 13.4 89 1.0 SE 2 6 1 3 1024.4 1024.0 0.0
15/08:00am 14.2 14.8 13.1 93 0.6 E 2 4 1 2 1024.3 1023.9 0.0
15/07:30am 13.8 14.7 13.0 95 0.4 CALM 0 2 0 1 1024.0 1023.6 0.0
15/07:00am 13.3 14.1 12.7 96 0.3 CALM 0 0 0 0 1023.9 1023.5 0.0
15/06:30am 13.1 13.3 12.9 99 0.1 ENE 4 4 2 2 1023.5 1023.1 0.0
15/06:00am 12.9 13.3 12.6 98 0.2 ESE 2 6 1 3 1023.4 1023.0 0.0
15/05:30am 13.0 13.0 12.5 97 0.3 SE 4 4 2 2 1023.3 1022.9 0.0
15/05:00am 13.5 13.7 13.2 98 0.2 N 4 6 2 3 1023.1 1022.7 0.0
15/04:30am 12.5 13.1 12.0 97 0.3 CALM 0 0 0 0 1023.3 1022.9 0.0
15/04:00am 12.7 13.5 12.4 98 0.2 CALM 0 0 0 0 1023.4 1023.0 0.0
15/03:30am 12.8 13.5 12.2 96 0.3 CALM 0 0 0 0 1023.2 1022.8 0.0
15/03:00am 13.4 14.2 12.5 94 0.5 CALM 0 0 0 0 1023.1 1022.7 0.0
15/02:30am 13.5 14.0 12.7 95 0.4 NNW 2 4 1 2 1023.0 1022.6 0.0
15/02:00am 13.1 13.1 12.3 95 0.4 NW 4 4 2 2 1023.3 1022.9 0.0
15/01:30am 12.8 12.6 11.9 94 0.5 NW 4 6 2 3 1023.5 1023.1 0.0
15/01:00am 13.0 12.8 11.7 92 0.7 NW 4 4 2 2 1023.4 1023.0 0.0
15/12:30am 13.3 13.5 11.9 91 0.8 NNW 2 6 1 3 1023.3 1022.9 0.0
15/12:00am 13.7 13.2 12.1 90 0.9 W 6 7 3 4 1023.2 1022.8 0.0
 
Date/Time
EDT
Temp
°C
App
Temp
°C
Dew
Point
°C
Rel
Hum
%
Delta-T
°C
Wind Press
QNH
hPa
Press
MSL
hPa
Rain since
9am
mm
Dir  Spd
km/h
Gust
km/h
Spd
kts
Gust
kts
14/11:30pm 13.8 13.3 12.0 89 1.0 WNW 6 7 3 4 1023.3 1022.9 0.0
14/11:00pm 13.9 13.7 11.9 88 1.1 WNW 4 6 2 3 1023.0 1022.6 0.0
14/10:30pm 14.5 13.9 11.8 84 1.5 WNW 6 7 3 4 1023.0 1022.6 0.0
14/10:00pm 15.1 14.5 11.7 80 1.8 W 6 9 3 5 1022.7 1022.3 0.0
14/09:30pm 16.1 15.6 11.9 76 2.3 WSW 6 11 3 6 1022.3 1021.9 0.0
14/09:00pm 16.8 16.1 11.5 71 2.9 WSW 6 9 3 5 1021.8 1021.4 0.0
14/08:30pm 17.6 16.7 10.7 64 3.7 SSW 6 13 3 7 1021.5 1021.1 0.0
14/08:00pm 19.1 17.9 9.6 54 5.0 SW 6 11 3 6 1020.9 1020.6 0.0
14/07:30pm 20.3 19.0 9.2 49 5.9 SW 6 13 3 7 1020.4 1020.0 0.0
14/07:00pm 21.0 18.7 8.9 46 6.4 WSW 11 20 6 11 1020.2 1019.8 0.0
14/06:30pm 21.4 19.1 9.0 45 6.6 WSW 11 22 6 12 1020.0 1019.6 0.0
14/06:00pm 21.8 19.0 8.7 43 7.0 WSW 13 24 7 13 1019.8 1019.4 0.0
14/05:30pm 21.4 18.6 8.7 44 6.7 WSW 13 24 7 13 1019.6 1019.2 0.0
14/05:00pm 22.0 18.8 8.5 42 7.2 W 15 26 8 14 1019.5 1019.1 0.0
14/04:30pm 21.6 18.3 8.1 42 7.1 WSW 15 28 8 15 1019.4 1019.0 0.0
14/04:00pm 21.8 17.8 8.3 42 7.1 W 19 32 10 17 1019.4 1019.0 0.0
14/03:30pm 21.2 17.1 8.5 44 6.7 W 20 30 11 16 1019.5 1019.1 0.0
14/03:00pm 21.3 17.2 8.6 44 6.7 W 20 37 11 20 1019.4 1019.0 0.0

Other Formats:

Comma delimited format used in spreadsheet applications
http://www.bom.gov.au/fwo/IDV60801/IDV60801.99806.axf

JavaScript Object Notation format (JSON) in row-major order
http://www.bom.gov.au/fwo/IDV60801/IDV60801.99806.json